createdAt,value
2022-10-09T00:00:37.317Z,5.747
2022-10-09T00:01:37.353Z,5.747
2022-10-09T00:02:37.476Z,5.747
2022-10-09T00:03:37.422Z,5.747
2022-10-09T00:04:37.452Z,5.747
2022-10-09T00:05:37.579Z,5.747
2022-10-09T00:06:37.514Z,5.761
2022-10-09T00:07:37.550Z,5.761
2022-10-09T00:08:37.581Z,5.761
2022-10-09T00:09:37.615Z,5.761
2022-10-09T00:10:37.650Z,5.692
2022-10-09T00:11:37.685Z,5.707
2022-10-09T00:12:37.725Z,5.707
2022-10-09T00:13:37.764Z,5.707
2022-10-09T00:14:37.801Z,5.692
2022-10-09T00:15:37.844Z,5.692
2022-10-09T00:16:37.919Z,5.692
2022-10-09T00:17:37.915Z,5.692
2022-10-09T00:18:37.946Z,5.692
2022-10-09T00:19:37.981Z,5.707
2022-10-09T00:20:38.012Z,5.707
2022-10-09T00:21:38.052Z,5.707
2022-10-09T00:22:38.086Z,5.707
2022-10-09T00:23:38.123Z,5.692
2022-10-09T00:24:38.160Z,5.707
2022-10-09T00:25:38.195Z,5.707
2022-10-09T00:26:38.233Z,5.624
2022-10-09T00:27:38.266Z,5.624
2022-10-09T00:28:38.808Z,5.624
2022-10-09T00:29:38.325Z,5.624
2022-10-09T00:30:38.385Z,5.624
2022-10-09T00:31:38.397Z,5.595
2022-10-09T00:32:38.433Z,5.567
2022-10-09T00:33:38.467Z,5.567
2022-10-09T00:34:38.502Z,5.567
2022-10-09T00:35:38.536Z,5.553
2022-10-09T00:36:38.571Z,5.456
2022-10-09T00:37:38.585Z,5.413
2022-10-09T00:38:38.619Z,5.385
2022-10-09T00:39:38.659Z,5.37
2022-10-09T00:40:38.691Z,5.356
2022-10-09T00:41:38.727Z,5.327
2022-10-09T00:42:38.760Z,5.23
2022-10-09T00:43:38.793Z,5.216
2022-10-09T00:44:38.826Z,5.216
2022-10-09T00:45:38.855Z,5.161
2022-10-09T00:46:38.877Z,5.19
2022-10-09T00:47:38.919Z,5.19
2022-10-09T00:48:38.952Z,5.161
2022-10-09T00:49:38.982Z,5.079
2022-10-09T00:50:39.011Z,5.079
2022-10-09T00:51:39.051Z,5.093
2022-10-09T00:52:39.097Z,5.093
2022-10-09T00:53:39.135Z,5.024
2022-10-09T00:54:39.174Z,5.01
2022-10-09T00:55:39.200Z,4.981
2022-10-09T00:56:39.230Z,4.996
2022-10-09T00:57:39.266Z,4.981
2022-10-09T00:58:39.294Z,4.898
2022-10-09T00:59:39.330Z,4.898
2022-10-09T01:00:39.366Z,4.87
2022-10-09T01:01:39.436Z,4.787
2022-10-09T01:02:39.504Z,4.772
2022-10-09T01:03:39.477Z,4.772
2022-10-09T01:04:39.499Z,4.772
2022-10-09T01:05:39.535Z,4.758
2022-10-09T01:06:39.566Z,4.689
2022-10-09T01:07:39.603Z,4.704
2022-10-09T01:08:39.639Z,4.732
2022-10-09T01:09:39.667Z,4.747
2022-10-09T01:10:39.705Z,4.761
2022-10-09T01:11:39.738Z,4.775
2022-10-09T01:12:39.773Z,4.721
2022-10-09T01:13:39.805Z,4.721
2022-10-09T01:14:39.842Z,4.678
2022-10-09T01:15:39.944Z,4.678
2022-10-09T01:16:39.925Z,4.649
2022-10-09T01:17:39.953Z,4.621
2022-10-09T01:18:39.985Z,4.606
2022-10-09T01:19:40.021Z,4.592
2022-10-09T01:20:40.064Z,4.494
2022-10-09T01:21:40.097Z,4.466
2022-10-09T01:22:40.137Z,4.451
2022-10-09T01:23:40.174Z,4.368
2022-10-09T01:24:40.219Z,4.325
2022-10-09T01:25:40.247Z,4.325
2022-10-09T01:26:40.276Z,4.296
2022-10-09T01:27:40.318Z,4.213
2022-10-09T01:28:40.388Z,4.198
2022-10-09T01:29:40.390Z,4.183
2022-10-09T01:30:40.474Z,4.115
2022-10-09T01:31:40.457Z,4.144
2022-10-09T01:32:40.494Z,4.144
2022-10-09T01:33:40.522Z,4.119
2022-10-09T01:34:40.538Z,4.148
2022-10-09T01:35:40.571Z,4.163
2022-10-09T01:36:40.599Z,4.094
2022-10-09T01:37:40.635Z,4.065
2022-10-09T01:38:40.675Z,3.982
2022-10-09T01:39:40.709Z,3.982
2022-10-09T01:40:40.740Z,3.953
2022-10-09T01:41:40.770Z,3.968
2022-10-09T01:42:40.809Z,3.914
2022-10-09T01:43:40.843Z,3.957
2022-10-09T01:44:40.885Z,4.015
2022-10-09T01:45:40.926Z,4.044
2022-10-09T01:46:41.024Z,4
2022-10-09T01:47:40.995Z,3.918
2022-10-09T01:48:41.029Z,3.918
2022-10-09T01:49:41.058Z,3.889
2022-10-09T01:50:41.089Z,3.903
2022-10-09T01:51:41.133Z,3.903
2022-10-09T01:52:41.600Z,3.889
2022-10-09T01:53:41.206Z,3.874
2022-10-09T01:54:41.239Z,3.874
2022-10-09T01:55:41.270Z,3.86
2022-10-09T01:56:41.299Z,3.831
2022-10-09T01:57:41.332Z,3.816
2022-10-09T01:58:41.366Z,3.69
2022-10-09T01:59:41.398Z,3.69
2022-10-09T02:00:41.429Z,3.704
2022-10-09T02:01:41.539Z,3.733
2022-10-09T02:02:41.560Z,3.665
2022-10-09T02:03:41.546Z,3.762
2022-10-09T02:04:41.582Z,3.708
2022-10-09T02:05:41.621Z,3.68
2022-10-09T02:06:41.663Z,3.622
2022-10-09T02:07:41.694Z,3.549
2022-10-09T02:08:41.732Z,3.407
2022-10-09T02:09:41.781Z,3.422
2022-10-09T02:10:41.812Z,3.368
2022-10-09T02:11:41.845Z,3.397
2022-10-09T02:12:41.872Z,3.383
2022-10-09T02:13:41.904Z,3.339
2022-10-09T02:14:41.944Z,3.271
2022-10-09T02:15:42.040Z,3.285
2022-10-09T02:16:42.010Z,3.314
2022-10-09T02:17:42.050Z,3.329
2022-10-09T02:18:42.085Z,3.304
2022-10-09T02:19:42.110Z,3.333
2022-10-09T02:20:42.150Z,3.362
2022-10-09T02:21:46.202Z,3.406
2022-10-09T02:22:42.213Z,3.366
2022-10-09T02:23:42.246Z,3.352
2022-10-09T02:24:42.285Z,3.308
2022-10-09T02:25:42.323Z,3.265
2022-10-09T02:26:42.355Z,3.25
2022-10-09T02:27:42.392Z,3.25
2022-10-09T02:28:45.842Z,3.236
2022-10-09T02:29:42.452Z,3.153
2022-10-09T02:30:42.481Z,3.153
2022-10-09T02:31:42.603Z,3.153
2022-10-09T02:32:42.547Z,3.138
2022-10-09T02:33:42.589Z,3.124
2022-10-09T02:34:42.620Z,3.138
2022-10-09T02:35:42.654Z,3.153
2022-10-09T02:36:42.686Z,3.167
2022-10-09T02:37:42.720Z,3.153
2022-10-09T02:38:42.755Z,3.099
2022-10-09T02:39:42.792Z,3.099
2022-10-09T02:40:42.824Z,3.099
2022-10-09T02:41:42.858Z,3.085
2022-10-09T02:42:42.894Z,3.045
2022-10-09T02:43:42.927Z,3.089
2022-10-09T02:44:42.959Z,3.117
2022-10-09T02:45:42.997Z,3.161
2022-10-09T02:46:43.114Z,3.161
2022-10-09T02:47:43.075Z,3.146
2022-10-09T02:48:43.111Z,3.146
2022-10-09T02:49:43.149Z,3.146
2022-10-09T02:50:43.183Z,3.175
2022-10-09T02:51:43.221Z,3.175
2022-10-09T02:52:43.252Z,3.175
2022-10-09T02:53:43.294Z,3.161
2022-10-09T02:54:43.320Z,3.175
2022-10-09T02:55:43.355Z,3.189
2022-10-09T02:56:43.390Z,3.161
2022-10-09T02:57:43.426Z,3.132
2022-10-09T02:58:43.453Z,3.074
2022-10-09T02:59:43.492Z,3.06
2022-10-09T03:00:43.528Z,2.977
2022-10-09T03:01:43.679Z,3.02
2022-10-09T03:02:43.750Z,3.035
2022-10-09T03:03:43.638Z,3.049
2022-10-09T03:04:43.670Z,3.02
2022-10-09T03:05:43.706Z,3.006
2022-10-09T03:06:43.740Z,3.006
2022-10-09T03:07:43.777Z,2.966
2022-10-09T03:08:43.812Z,2.966
2022-10-09T03:09:43.839Z,3.02
2022-10-09T03:10:43.877Z,2.908
2022-10-09T03:11:43.913Z,2.923
2022-10-09T03:12:43.949Z,2.923
2022-10-09T03:13:43.985Z,2.937
2022-10-09T03:14:44.014Z,2.937
2022-10-09T03:15:44.133Z,2.952
2022-10-09T03:16:44.086Z,2.981
2022-10-09T03:17:44.117Z,2.995
2022-10-09T03:18:44.149Z,3.024
2022-10-09T03:19:44.177Z,3.009
2022-10-09T03:20:44.204Z,2.995
2022-10-09T03:21:44.232Z,2.952
2022-10-09T03:22:44.264Z,2.981
2022-10-09T03:23:44.301Z,2.995
2022-10-09T03:24:44.341Z,3.009
2022-10-09T03:25:44.370Z,3.009
2022-10-09T03:26:44.404Z,2.995
2022-10-09T03:27:44.438Z,2.966
2022-10-09T03:28:44.563Z,2.923
2022-10-09T03:29:44.507Z,2.825
2022-10-09T03:30:44.548Z,2.84
2022-10-09T03:31:52.363Z,2.84
2022-10-09T03:32:44.619Z,2.854
2022-10-09T03:33:44.652Z,2.854
2022-10-09T03:34:44.683Z,2.869
2022-10-09T03:35:44.717Z,2.869
2022-10-09T03:36:44.747Z,2.869
2022-10-09T03:37:44.789Z,2.854
2022-10-09T03:38:44.818Z,2.757
2022-10-09T03:39:44.850Z,2.714
2022-10-09T03:40:44.889Z,2.699
2022-10-09T03:41:44.919Z,2.699
2022-10-09T03:42:44.958Z,2.685
2022-10-09T03:43:44.999Z,2.67
2022-10-09T03:44:45.036Z,2.655
2022-10-09T03:45:45.069Z,2.587
2022-10-09T03:46:45.213Z,2.573
2022-10-09T03:47:45.142Z,2.573
2022-10-09T03:48:45.182Z,2.573
2022-10-09T03:49:45.211Z,2.558
2022-10-09T03:50:45.249Z,2.543
2022-10-09T03:51:45.285Z,2.558
2022-10-09T03:52:45.393Z,2.49
2022-10-09T03:53:45.348Z,2.49
2022-10-09T03:54:45.389Z,2.504
2022-10-09T03:55:45.422Z,2.49
2022-10-09T03:56:45.456Z,2.446
2022-10-09T03:57:45.488Z,2.446
2022-10-09T03:58:45.522Z,2.363
2022-10-09T03:59:45.557Z,2.304
2022-10-09T04:00:45.697Z,2.319
2022-10-09T04:01:45.627Z,2.319
2022-10-09T04:02:45.824Z,2.319
2022-10-09T04:03:45.701Z,2.334
2022-10-09T04:04:45.738Z,2.348
2022-10-09T04:05:45.781Z,2.348
2022-10-09T04:06:45.830Z,2.363
2022-10-09T04:07:45.858Z,2.324
2022-10-09T04:08:45.898Z,2.324
2022-10-09T04:09:45.935Z,2.338
2022-10-09T04:10:45.964Z,2.367
2022-10-09T04:11:46.003Z,2.328
2022-10-09T04:12:46.300Z,2.314
2022-10-09T04:13:46.074Z,2.285
2022-10-09T04:14:46.107Z,2.299
2022-10-09T04:15:46.132Z,2.299
2022-10-09T04:16:46.325Z,2.314
2022-10-09T04:17:46.204Z,2.314
2022-10-09T04:18:46.241Z,2.314
2022-10-09T04:19:46.280Z,2.328
2022-10-09T04:20:46.310Z,2.314
2022-10-09T04:21:46.347Z,2.245
2022-10-09T04:22:46.723Z,2.328
2022-10-09T04:23:46.402Z,2.328
2022-10-09T04:24:46.434Z,2.314
2022-10-09T04:25:46.474Z,2.27
2022-10-09T04:26:46.504Z,2.158
2022-10-09T04:27:46.545Z,2.216
2022-10-09T04:28:46.633Z,2.26
2022-10-09T04:29:46.613Z,2.289
2022-10-09T04:30:46.648Z,2.206
2022-10-09T04:31:46.733Z,2.191
2022-10-09T04:32:47.090Z,2.177
2022-10-09T04:33:46.737Z,2.162
2022-10-09T04:34:46.771Z,2.162
2022-10-09T04:35:46.814Z,2.177
2022-10-09T04:36:46.846Z,2.177
2022-10-09T04:37:46.881Z,2.177
2022-10-09T04:38:46.918Z,2.177
2022-10-09T04:39:46.948Z,2.177
2022-10-09T04:40:46.986Z,2.191
2022-10-09T04:41:47.018Z,2.177
2022-10-09T04:42:47.277Z,2.094
2022-10-09T04:43:47.082Z,2.094
2022-10-09T04:44:47.114Z,2.08
2022-10-09T04:45:47.198Z,2.094
2022-10-09T04:46:47.183Z,2.08
2022-10-09T04:47:47.215Z,2.051
2022-10-09T04:48:47.243Z,2.051
2022-10-09T04:49:47.271Z,2.065
2022-10-09T04:50:47.331Z,2.065
2022-10-09T04:51:47.342Z,2.065
2022-10-09T04:52:47.604Z,2.051
2022-10-09T04:53:47.405Z,1.982
2022-10-09T04:54:47.439Z,2.011
2022-10-09T04:55:47.483Z,2.026
2022-10-09T04:56:47.515Z,2.026
2022-10-09T04:57:47.553Z,2.026
2022-10-09T04:58:47.580Z,2.055
2022-10-09T04:59:47.609Z,2.04
2022-10-09T05:00:47.735Z,2.026
2022-10-09T05:01:47.854Z,1.997
2022-10-09T05:02:48.116Z,1.997
2022-10-09T05:03:47.767Z,1.943
2022-10-09T05:04:47.800Z,1.957
2022-10-09T05:05:47.837Z,1.957
2022-10-09T05:06:47.864Z,1.972
2022-10-09T05:07:47.907Z,1.972
2022-10-09T05:08:47.933Z,2.001
2022-10-09T05:09:47.968Z,2.015
2022-10-09T05:10:48.008Z,2.03
2022-10-09T05:11:48.036Z,2.03
2022-10-09T05:12:48.300Z,2.03
2022-10-09T05:13:48.096Z,2.001
2022-10-09T05:14:48.133Z,1.957
2022-10-09T05:15:48.166Z,1.875
2022-10-09T05:17:11.896Z,1.875
2022-10-09T05:17:48.232Z,1.86
2022-10-09T05:18:48.273Z,1.86
2022-10-09T05:19:48.300Z,1.86
2022-10-09T05:20:48.325Z,1.86
2022-10-09T05:21:48.352Z,1.86
2022-10-09T05:22:48.817Z,1.86
2022-10-09T05:23:48.426Z,1.86
2022-10-09T05:24:48.452Z,1.86
2022-10-09T05:25:48.491Z,1.719
2022-10-09T05:26:48.522Z,1.704
2022-10-09T05:27:48.552Z,1.69
2022-10-09T05:28:48.645Z,1.69
2022-10-09T05:29:48.615Z,1.607
2022-10-09T05:30:48.650Z,1.622
2022-10-09T05:31:49.760Z,1.651
2022-10-09T05:32:48.957Z,1.665
2022-10-09T05:33:48.749Z,1.597
2022-10-09T05:34:48.801Z,1.597
2022-10-09T05:35:48.820Z,1.597
2022-10-09T05:36:48.856Z,1.626
2022-10-09T05:37:48.886Z,1.684
2022-10-09T05:38:48.915Z,1.727
2022-10-09T05:39:48.953Z,1.742
2022-10-09T05:40:48.992Z,1.771
2022-10-09T05:41:49.024Z,1.785
2022-10-09T05:42:49.323Z,1.799
2022-10-09T05:43:49.089Z,1.814
2022-10-09T05:44:49.117Z,1.911
2022-10-09T05:45:49.191Z,1.911
2022-10-09T05:46:49.196Z,1.925
2022-10-09T05:47:49.230Z,1.939
2022-10-09T05:48:49.263Z,1.939
2022-10-09T05:49:49.302Z,1.925
2022-10-09T05:50:49.338Z,1.993
2022-10-09T05:51:49.367Z,1.993
2022-10-09T05:52:49.635Z,1.993
2022-10-09T05:53:49.432Z,1.993
2022-10-09T05:54:49.472Z,1.993
2022-10-09T05:55:49.506Z,2.008
2022-10-09T05:56:49.538Z,2.022
2022-10-09T05:57:49.569Z,2.119
2022-10-09T05:58:49.598Z,2.148
2022-10-09T05:59:49.626Z,2.19
2022-10-09T06:00:49.670Z,2.287
2022-10-09T06:01:49.864Z,2.33
2022-10-09T06:02:50.077Z,2.386
2022-10-09T06:03:49.800Z,2.414
2022-10-09T06:04:49.814Z,2.497
2022-10-09T06:05:49.847Z,2.497
2022-10-09T06:06:49.881Z,2.469
2022-10-09T06:07:49.914Z,2.455
2022-10-09T06:08:49.948Z,2.523
2022-10-09T06:09:49.981Z,2.523
2022-10-09T06:10:50.012Z,2.523
2022-10-09T06:11:50.049Z,2.592
2022-10-09T06:12:50.504Z,2.592
2022-10-09T06:13:50.137Z,2.592
2022-10-09T06:14:50.152Z,2.592
2022-10-09T06:15:50.184Z,2.675
2022-10-09T06:16:50.334Z,2.703
2022-10-09T06:17:50.242Z,2.772
2022-10-09T06:18:50.279Z,2.786
2022-10-09T06:19:50.312Z,2.854
2022-10-09T06:20:50.349Z,2.854
2022-10-09T06:21:50.394Z,2.84
2022-10-09T06:22:50.858Z,2.923
2022-10-09T06:23:50.457Z,2.923
2022-10-09T06:24:50.487Z,3.006
2022-10-09T06:25:50.534Z,3.048
2022-10-09T06:26:50.549Z,3.131
2022-10-09T06:27:50.578Z,3.117
2022-10-09T06:28:50.714Z,3.185
2022-10-09T06:29:50.652Z,3.185
2022-10-09T06:30:50.718Z,3.268
2022-10-09T06:31:50.718Z,3.31
2022-10-09T06:32:51.379Z,3.407
2022-10-09T06:33:50.783Z,3.532
2022-10-09T06:34:50.812Z,3.574
2022-10-09T06:35:50.845Z,3.684
2022-10-09T06:36:50.869Z,3.781
2022-10-09T06:37:50.904Z,3.795
2022-10-09T06:38:50.936Z,3.891
2022-10-09T06:39:50.973Z,3.974
2022-10-09T06:40:51.011Z,4.07
2022-10-09T06:41:51.056Z,4.139
2022-10-09T06:42:51.630Z,4.236
2022-10-09T06:43:51.104Z,4.319
2022-10-09T06:44:51.133Z,4.387
2022-10-09T06:45:51.187Z,4.525
2022-10-09T06:46:51.196Z,4.621
2022-10-09T06:47:51.236Z,4.717
2022-10-09T06:48:51.261Z,4.799
2022-10-09T06:49:51.296Z,4.839
2022-10-09T06:50:51.342Z,4.825
2022-10-09T06:51:51.389Z,4.894
2022-10-09T06:52:51.836Z,4.948
2022-10-09T06:53:51.449Z,4.934
2022-10-09T06:54:51.477Z,4.989
2022-10-09T06:55:51.514Z,5.072
2022-10-09T06:56:51.546Z,5.126
2022-10-09T06:57:51.572Z,5.153
2022-10-09T06:58:51.613Z,5.138
2022-10-09T06:59:51.638Z,5.193
2022-10-09T07:00:51.671Z,5.207
2022-10-09T07:01:51.852Z,5.261
2022-10-09T07:02:52.162Z,5.29
2022-10-09T07:03:51.773Z,5.29
2022-10-09T07:04:51.798Z,5.33
2022-10-09T07:05:51.831Z,5.344
2022-10-09T07:06:51.868Z,5.413
2022-10-09T07:07:51.900Z,5.385
2022-10-09T07:08:51.930Z,5.385
2022-10-09T07:09:51.961Z,5.453
2022-10-09T07:10:51.995Z,5.468
2022-10-09T07:11:52.027Z,5.565
2022-10-09T07:12:52.056Z,5.55
2022-10-09T07:13:52.093Z,5.55
2022-10-09T07:14:52.126Z,5.619
2022-10-09T07:15:52.185Z,5.591
2022-10-09T07:16:52.193Z,5.576
2022-10-09T07:17:52.229Z,5.674
2022-10-09T07:18:52.265Z,5.674
2022-10-09T07:19:52.301Z,5.659
2022-10-09T07:20:52.327Z,5.714
2022-10-09T07:21:52.367Z,5.728
2022-10-09T07:22:52.403Z,5.714
2022-10-09T07:23:52.430Z,5.754
2022-10-09T07:24:52.457Z,5.822
2022-10-09T07:25:52.491Z,5.837
2022-10-09T07:26:52.522Z,5.822
2022-10-09T07:27:52.548Z,5.891
2022-10-09T07:28:52.584Z,5.876
2022-10-09T07:29:52.614Z,5.862
2022-10-09T07:30:52.757Z,5.876
2022-10-09T07:31:52.685Z,5.862
2022-10-09T07:32:52.712Z,5.916
2022-10-09T07:33:52.750Z,5.902
2022-10-09T07:34:52.779Z,5.873
2022-10-09T07:35:52.819Z,5.873
2022-10-09T07:36:52.847Z,5.887
2022-10-09T07:37:52.883Z,5.916
2022-10-09T07:38:52.918Z,5.999
2022-10-09T07:39:52.940Z,5.931
2022-10-09T07:40:52.983Z,6.028
2022-10-09T07:41:53.016Z,6.014
2022-10-09T07:42:53.047Z,6.014
2022-10-09T07:43:53.094Z,6.014
2022-10-09T07:44:53.115Z,6.014
2022-10-09T07:45:53.235Z,6.068
2022-10-09T07:46:53.185Z,6.097
2022-10-09T07:47:53.216Z,6.097
2022-10-09T07:48:53.252Z,6.111
2022-10-09T07:49:53.287Z,6.194
2022-10-09T07:50:53.323Z,6.209
2022-10-09T07:51:53.360Z,6.18
2022-10-09T07:52:53.398Z,6.209
2022-10-09T07:53:53.424Z,6.292
2022-10-09T07:54:53.460Z,6.306
2022-10-09T07:55:53.489Z,6.32
2022-10-09T07:56:53.530Z,6.403
2022-10-09T07:57:53.561Z,6.432
2022-10-09T07:58:53.588Z,6.432
2022-10-09T07:59:53.615Z,6.403
2022-10-09T08:00:53.647Z,6.375
2022-10-09T08:01:53.738Z,6.443
2022-10-09T08:02:53.909Z,6.415
2022-10-09T08:03:53.741Z,6.386
2022-10-09T08:04:53.776Z,6.386
2022-10-09T08:05:53.818Z,6.4
2022-10-09T08:06:53.847Z,6.386
2022-10-09T08:07:53.869Z,6.454
2022-10-09T08:08:53.910Z,6.454
2022-10-09T08:09:53.950Z,6.469
2022-10-09T08:10:53.987Z,6.469
2022-10-09T08:11:54.019Z,6.454
2022-10-09T08:12:54.056Z,6.454
2022-10-09T08:13:54.102Z,6.44
2022-10-09T08:14:54.126Z,6.509
2022-10-09T08:15:54.215Z,6.523
2022-10-09T08:16:54.197Z,6.552
2022-10-09T08:17:54.227Z,6.566
2022-10-09T08:18:54.256Z,6.523
2022-10-09T08:19:54.293Z,6.563
2022-10-09T08:20:54.329Z,6.563
2022-10-09T08:21:54.364Z,6.563
2022-10-09T08:22:54.398Z,6.563
2022-10-09T08:23:54.433Z,6.631
2022-10-09T08:24:54.466Z,6.689
2022-10-09T08:25:54.501Z,6.689
2022-10-09T08:26:54.530Z,6.689
2022-10-09T08:27:54.561Z,6.758
2022-10-09T08:28:54.680Z,6.729
2022-10-09T08:29:54.641Z,6.729
2022-10-09T08:30:54.718Z,6.798
2022-10-09T08:31:54.704Z,6.754
2022-10-09T08:32:54.731Z,6.754
2022-10-09T08:33:54.771Z,6.754
2022-10-09T08:34:54.799Z,6.837
2022-10-09T08:35:54.821Z,6.823
2022-10-09T08:36:54.862Z,6.837
2022-10-09T08:37:54.886Z,6.891
2022-10-09T08:38:54.916Z,6.877
2022-10-09T08:39:54.952Z,6.862
2022-10-09T08:40:58.241Z,6.931
2022-10-09T08:41:55.013Z,6.974
2022-10-09T08:42:55.047Z,7.003
2022-10-09T08:43:55.082Z,7.014
2022-10-09T08:44:55.118Z,6.985
2022-10-09T08:45:55.151Z,6.999
2022-10-09T08:46:55.182Z,7.053
2022-10-09T08:47:55.223Z,7.053
2022-10-09T08:48:55.253Z,7.053
2022-10-09T08:49:55.286Z,6.995
2022-10-09T08:50:55.323Z,6.98
2022-10-09T08:51:55.359Z,7.078
2022-10-09T08:52:56.054Z,7.064
2022-10-09T08:53:55.434Z,7.078
2022-10-09T08:54:55.456Z,7.049
2022-10-09T08:55:55.481Z,7.147
2022-10-09T08:56:55.522Z,7.161
2022-10-09T08:57:55.560Z,7.161
2022-10-09T08:58:55.590Z,7.303
2022-10-09T08:59:55.630Z,7.332
2022-10-09T09:00:55.658Z,7.43
2022-10-09T09:01:55.733Z,7.444
2022-10-09T09:02:55.765Z,7.444
2022-10-09T09:03:55.748Z,7.542
2022-10-09T09:04:55.782Z,7.625
2022-10-09T09:05:55.816Z,7.669
2022-10-09T09:06:55.854Z,7.697
2022-10-09T09:07:55.876Z,7.766
2022-10-09T09:08:55.916Z,7.737
2022-10-09T09:09:55.948Z,7.763
2022-10-09T09:10:55.982Z,7.719
2022-10-09T09:11:56.012Z,7.704
2022-10-09T09:12:56.048Z,7.729
2022-10-09T09:13:56.075Z,7.773
2022-10-09T09:14:56.219Z,7.856
2022-10-09T09:15:56.186Z,7.812
2022-10-09T09:16:56.179Z,7.783
2022-10-09T09:17:56.218Z,7.852
2022-10-09T09:18:56.241Z,7.881
2022-10-09T09:19:56.272Z,7.935
2022-10-09T09:20:56.303Z,7.906
2022-10-09T09:21:56.340Z,7.891
2022-10-09T09:22:56.367Z,7.93
2022-10-09T09:23:56.388Z,7.901
2022-10-09T09:24:56.418Z,7.886
2022-10-09T09:25:56.459Z,7.895
2022-10-09T09:26:56.491Z,7.895
2022-10-09T09:27:56.525Z,7.881
2022-10-09T09:28:56.631Z,7.836
2022-10-09T09:29:56.593Z,7.836
2022-10-09T09:30:56.661Z,7.92
2022-10-09T09:31:56.660Z,7.964
2022-10-09T09:32:56.696Z,7.979
2022-10-09T09:33:56.732Z,7.988
2022-10-09T09:34:56.761Z,7.943
2022-10-09T09:35:56.790Z,7.899
2022-10-09T09:36:56.835Z,7.928
2022-10-09T09:37:56.865Z,7.928
2022-10-09T09:40:36.144Z,8.027
2022-10-09T09:40:56.952Z,8.11
2022-10-09T09:41:56.982Z,8.11
2022-10-09T09:42:57.012Z,8.08
2022-10-09T09:43:57.045Z,8.089
2022-10-09T09:44:57.079Z,8.074
2022-10-09T09:45:57.110Z,8.059
2022-10-09T09:46:57.190Z,8.142
2022-10-09T09:47:57.189Z,8.157
2022-10-09T09:48:57.219Z,8.142
2022-10-09T09:49:57.254Z,8.097
2022-10-09T09:51:16.193Z,8.082
2022-10-09T09:51:57.326Z,8.181
2022-10-09T09:52:57.356Z,8.12
2022-10-09T09:53:57.393Z,8.143
2022-10-09T09:54:57.432Z,8.174
2022-10-09T09:55:57.465Z,8.128
2022-10-09T09:57:13.014Z,8.166
2022-10-09T09:57:57.530Z,8.151
2022-10-09T09:58:57.566Z,8.189
2022-10-09T09:59:57.596Z,8.143
2022-10-09T10:00:57.721Z,8.051
2022-10-09T10:01:57.723Z,8.058
2022-10-09T10:02:57.701Z,8.15
2022-10-09T10:03:57.734Z,8.135
2022-10-09T10:04:57.773Z,8.126
2022-10-09T10:05:57.800Z,8.157
2022-10-09T10:06:57.828Z,8.234
2022-10-09T10:07:57.864Z,8.256
2022-10-09T10:08:57.903Z,8.148
2022-10-09T10:09:57.931Z,8.101
2022-10-09T10:10:57.957Z,8.101
2022-10-09T10:11:57.984Z,8.154
2022-10-09T10:12:58.013Z,8.185
2022-10-09T10:13:58.045Z,8.216
2022-10-09T10:14:58.070Z,8.315
2022-10-09T10:15:58.193Z,8.269
2022-10-09T10:16:58.138Z,8.269
2022-10-09T10:17:58.637Z,8.306
2022-10-09T10:18:58.681Z,8.243
2022-10-09T10:19:58.709Z,8.181
2022-10-09T10:20:58.766Z,8.233
2022-10-09T10:21:58.769Z,8.249
2022-10-09T10:22:58.791Z,8.332
2022-10-09T10:23:58.867Z,8.348
2022-10-09T10:24:58.863Z,8.447
2022-10-09T10:25:58.904Z,8.4
2022-10-09T10:26:58.914Z,8.322
2022-10-09T10:27:58.951Z,8.342
2022-10-09T10:28:58.982Z,8.295
2022-10-09T10:29:59.012Z,8.295
2022-10-09T10:30:59.082Z,8.247
2022-10-09T10:31:59.073Z,8.263
2022-10-09T10:32:59.112Z,8.395
2022-10-09T10:33:59.132Z,8.379
2022-10-09T10:34:59.181Z,8.351
2022-10-09T10:35:59.208Z,8.255
2022-10-09T10:37:02.583Z,8.194
2022-10-09T10:37:59.265Z,8.178
2022-10-09T10:38:59.297Z,8.162
2022-10-09T10:39:59.333Z,8.099
2022-10-09T10:40:59.365Z,8.05
2022-10-09T10:41:59.401Z,8.083
2022-10-09T10:42:59.500Z,8.099
2022-10-09T10:43:59.469Z,8.067
2022-10-09T10:44:59.500Z,8.05
2022-10-09T10:45:59.535Z,8.067
2022-10-09T10:46:59.633Z,8.067
2022-10-09T10:47:59.615Z,8.083
2022-10-09T10:48:59.636Z,8.05
2022-10-09T10:49:59.671Z,8.017
2022-10-09T10:50:59.705Z,7.935
2022-10-09T10:51:59.745Z,7.953
2022-10-09T10:52:59.783Z,7.92
2022-10-09T10:53:59.824Z,7.92
2022-10-09T10:54:59.840Z,7.954
2022-10-09T10:56:04.863Z,7.954
2022-10-09T10:56:59.907Z,7.905
2022-10-09T10:57:59.953Z,7.787
2022-10-09T10:58:59.958Z,7.888
2022-10-09T10:59:59.988Z,7.888
2022-10-09T11:01:00.128Z,7.939
2022-10-09T11:02:00.067Z,7.888
2022-10-09T11:03:00.167Z,7.921
2022-10-09T11:04:00.140Z,7.768
2022-10-09T11:05:00.162Z,7.886
2022-10-09T11:06:00.189Z,7.919
2022-10-09T11:07:00.226Z,7.747
2022-10-09T11:08:00.461Z,7.712
2022-10-09T11:09:00.285Z,7.693
2022-10-09T11:10:00.328Z,7.588
2022-10-09T11:11:00.373Z,7.812
2022-10-09T11:12:00.398Z,7.76
2022-10-09T11:13:00.825Z,7.774
2022-10-09T11:14:00.466Z,7.774
2022-10-09T11:15:00.493Z,7.563
2022-10-09T11:16:00.581Z,7.63
2022-10-09T11:17:00.562Z,7.541
2022-10-09T11:18:00.619Z,7.643
2022-10-09T11:19:00.619Z,7.661
2022-10-09T11:20:00.651Z,7.714
2022-10-09T11:21:00.690Z,7.674
2022-10-09T11:22:00.721Z,7.763
2022-10-09T11:23:00.776Z,7.71
2022-10-09T11:24:00.785Z,7.746
2022-10-09T11:25:00.824Z,7.616
2022-10-09T11:26:00.852Z,7.597
2022-10-09T11:27:03.223Z,7.579
2022-10-09T11:28:00.921Z,7.579
2022-10-09T11:29:00.950Z,7.543
2022-10-09T11:30:00.985Z,7.471
2022-10-09T11:31:01.022Z,7.434
2022-10-09T11:32:01.094Z,7.452
2022-10-09T11:33:01.086Z,7.489
2022-10-09T11:34:01.114Z,7.507
2022-10-09T11:35:01.149Z,7.543
2022-10-09T11:36:01.183Z,7.543
2022-10-09T11:37:01.218Z,7.538
2022-10-09T11:38:01.251Z,7.483
2022-10-09T11:39:01.317Z,7.428
2022-10-09T11:40:01.329Z,7.586
2022-10-09T11:41:03.854Z,7.421
2022-10-09T11:42:01.392Z,7.255
2022-10-09T11:43:01.426Z,7.284
2022-10-09T11:44:01.479Z,7.228
2022-10-09T11:45:01.514Z,7.247
2022-10-09T11:46:01.569Z,7.555
2022-10-09T11:47:02.239Z,7.621
2022-10-09T11:48:01.574Z,7.621
2022-10-09T11:49:01.631Z,7.473
2022-10-09T11:50:01.666Z,7.353
2022-10-09T11:51:01.672Z,7.277
2022-10-09T11:52:01.710Z,7.191
2022-10-09T11:53:01.746Z,7.268
2022-10-09T11:54:01.801Z,7.277
2022-10-09T11:55:01.805Z,7.22
2022-10-09T11:56:01.837Z,7.4
2022-10-09T11:57:05.147Z,7.543
2022-10-09T11:58:01.900Z,7.505
2022-10-09T11:59:01.961Z,7.438
2022-10-09T12:00:01.968Z,7.457
2022-10-09T12:01:02.109Z,7.38
2022-10-09T12:02:02.128Z,7.533
2022-10-09T12:03:02.074Z,7.676
2022-10-09T12:04:02.132Z,7.92
2022-10-09T12:05:02.142Z,7.789
2022-10-09T12:06:02.176Z,7.789
2022-10-09T12:07:02.214Z,7.77
2022-10-09T12:08:02.250Z,7.874
2022-10-09T12:09:02.303Z,7.931
2022-10-09T12:10:02.312Z,7.761
2022-10-09T12:11:02.352Z,7.28
2022-10-09T12:12:02.388Z,7.385
2022-10-09T12:13:02.412Z,7.598
2022-10-09T12:14:02.445Z,7.521
2022-10-09T12:15:02.474Z,7.56
2022-10-09T12:16:02.506Z,7.647
2022-10-09T12:17:02.649Z,7.666
2022-10-09T12:18:02.562Z,7.551
2022-10-09T12:19:02.593Z,7.202
2022-10-09T12:20:02.646Z,7.273
2022-10-09T12:21:02.659Z,7.253
2022-10-09T12:22:02.712Z,7.195
2022-10-09T12:23:25.609Z,7.175
2022-10-09T12:24:02.760Z,7.446
2022-10-09T12:25:02.818Z,7.59
2022-10-09T12:26:02.839Z,7.11
2022-10-09T12:27:02.861Z,7.051
2022-10-09T12:28:02.963Z,7.315
2022-10-09T12:29:02.917Z,6.856
2022-10-09T12:30:02.972Z,6.862
2022-10-09T12:31:03.001Z,7.143
2022-10-09T12:32:03.006Z,7.123
2022-10-09T12:33:03.047Z,7.129
2022-10-09T12:34:03.069Z,7.008
2022-10-09T12:35:03.101Z,7.109
2022-10-09T12:36:03.134Z,7.189
2022-10-09T12:37:03.163Z,6.703
2022-10-09T12:38:03.188Z,6.661
2022-10-09T12:39:03.223Z,6.805
2022-10-09T12:40:03.282Z,6.968
2022-10-09T12:41:03.296Z,7.149
2022-10-09T12:42:03.332Z,7.063
2022-10-09T12:43:03.373Z,6.862
2022-10-09T12:44:03.404Z,6.902
2022-10-09T12:45:03.442Z,6.43
2022-10-09T12:46:03.526Z,6.637
2022-10-09T12:47:03.511Z,6.388
2022-10-09T12:48:03.547Z,6.471
2022-10-09T12:49:03.591Z,6.471
2022-10-09T12:50:03.622Z,6.451
2022-10-09T12:51:03.650Z,6.596
2022-10-09T12:52:03.692Z,6.637
2022-10-09T12:53:03.740Z,6.744
2022-10-09T12:54:03.757Z,6.953
2022-10-09T12:55:03.786Z,6.686
2022-10-09T12:56:03.823Z,6.585
2022-10-09T12:57:03.877Z,6.482